Amber, New York
Current Conditions -  °F | °C
As of 8:54 AM on Saturday 22 Nov 2014 (Local Time) from KSYR Reporting Station
Broken Clouds Broken Clouds  
Wind Chill: 22°   Ceiling: 18000
Heat Index: 31°   Visibility: 10mi
Dew Point:   Wind: 10mph
Humidity: 40%   Direction: 180°S
Pressure: 30.27"   Gusts: NA
Location:  42.889°N, 76.2819°W
Report Text: KSYR 221354Z 18009KT 10SM BKN180 M01/M13 A3027 RMK AO2 SLP251 T10061128 VISNO NW $
Loading
Personal Weather Stations






























Interactive Weather Map New forecast layout! Learn more

10-Day Weather Forecast

Advertisements
Track Severe Weather on mobile